METAR Data
IDs: Format: Raw Decoded Include TAF

Data at: 2138 UTC 08 Aug 2020

KM08 082115Z AUTO 00000KT 10SM FEW050 33/19 A3009 RMK A01
KM08 082055Z AUTO 00000KT 10SM SCT050 33/20 A3009 RMK A01
KM08 082035Z AUTO 00000KT 10SM FEW050 33/20 A3009 RMK A01
KM08 082015Z AUTO 26004KT 10SM FEW050 FEW055 33/20 A3010 RMK A01
KM08 081955Z AUTO VRB03KT 10SM SCT050 33/20 A3011 RMK A01
KM08 081935Z AUTO 27004KT 10SM FEW050 33/21 A3012 RMK A01
KM08 081915Z AUTO VRB04KT 10SM CLR 32/20 A3012 RMK A01
KM08 081855Z AUTO 22004KT 10SM CLR 33/20 A3013 RMK A01
KM08 081835Z AUTO 01004KT 10SM CLR 32/19 A3014 RMK A01
KM08 081815Z AUTO 00000KT 10SM CLR 32/20 A3015 RMK A01
KM08 081755Z AUTO VRB04KT 8SM CLR 31/20 A3016 RMK A01
KM08 081735Z AUTO 33005KT 10SM CLR 32/21 A3016 RMK A01
KM08 081715Z AUTO VRB03KT 10SM CLR 31/21 A3016 RMK A01
KM08 081655Z AUTO 25005KT 10SM CLR 31/21 A3016 RMK A01
KM08 081635Z AUTO VRB03KT 10SM CLR 31/20 A3016 RMK A01
KM08 081615Z AUTO 00000KT 10SM CLR 31/21 A3017 RMK A01
KM08 081555Z AUTO VRB03KT 10SM CLR 30/21 A3017 RMK A01
KM08 081535Z AUTO 00000KT 10SM CLR 30/21 A3016 RMK A01
KM08 081515Z AUTO 00000KT 10SM CLR 29/21 A3016 RMK A01
KM08 081455Z AUTO 00000KT 10SM CLR 28/21 A3016 RMK A01
KM08 081435Z AUTO VRB03KT 10SM CLR 27/21 A3015 RMK A01
KM08 081415Z AUTO 10003KT 10SM CLR 26/21 A3015 RMK A01
KM08 081350Z AUTO 00000KT 10SM CLR 26/21 A3015 RMK A01
KM08 081335Z AUTO 00000KT 10SM CLR 25/21 A3015 RMK A01
KM08 081315Z AUTO 13003KT 10SM CLR 24/21 A3015 RMK A01
KM08 081255Z AUTO 00000KT 10SM CLR 23/20 A3014 RMK A01
KM08 081235Z AUTO 00000KT 10SM CLR 22/20 A3014 RMK A01
KM08 081215Z AUTO 00000KT 10SM CLR 20/19 A3014 RMK A01
KM08 081155Z AUTO 00000KT 9SM CLR 19/18 A3013 RMK A01
KM08 081135Z AUTO 00000KT 1 1/4SM BR CLR 18/18 A3013 RMK A01 VIS 1/2V5
KM08 081115Z AUTO 00000KT 4SM BR CLR 18/18 A3013 RMK A01
KM08 081055Z AUTO 00000KT 1SM BR CLR 18/18 A3012 RMK A01
KM08 081035Z AUTO 00000KT 3/4SM BR VV005 18/18 A3012 RMK A01
KM08 081015Z AUTO 00000KT 5SM BR CLR 19/18 A3012 RMK A01
KM08 080955Z AUTO 00000KT 2 1/2SM BR CLR 18/18 A3011 RMK A01
KM08 080935Z AUTO 00000KT 3/4SM BR VV005 18/18 A3012 RMK A01
KM08 080915Z AUTO 00000KT 1/4SM FG VV002 19/18 A3012 RMK A01
KM08 080855Z AUTO 00000KT 1 1/4SM BR CLR 19/19 A3012 RMK A01
KM08 080835Z AUTO 00000KT 7SM CLR 19/19 A3012 RMK A01
KM08 080815Z AUTO 00000KT 6SM BR CLR 19/19 A3012 RMK A01
KM08 080755Z AUTO 00000KT 4SM BR CLR 19/19 A3012 RMK A01
KM08 080735Z AUTO 00000KT 2 1/2SM BR CLR 19/19 A3012 RMK A01 VIS 1 1/2V5
KM08 080715Z AUTO 00000KT 2 1/2SM BR CLR 20/19 A3012 RMK A01
KM08 080655Z AUTO 00000KT 7SM CLR 20/19 A3011 RMK A01
KM08 080635Z AUTO 00000KT 2SM BR CLR 20/19 A3011 RMK A01 VIS 1V5
KM08 080615Z AUTO 00000KT 6SM BR CLR 20/19 A3011 RMK A01
KM08 080555Z AUTO 00000KT 5SM BR CLR 20/20 A3011 RMK A01
KM08 080535Z AUTO 00000KT 6SM BR CLR 20/19 A3011 RMK A01
KM08 080515Z AUTO 00000KT 8SM CLR 20/20 A3011 RMK A01
KM08 080455Z AUTO 00000KT 3SM BR CLR 21/20 A3010 RMK A01
KM08 080435Z AUTO 00000KT 9SM CLR 21/20 A3010 RMK A01
KM08 080415Z AUTO 00000KT 4SM BR CLR 21/20 A3010 RMK A01
KM08 080355Z AUTO 00000KT 10SM CLR 21/21 A3011 RMK A01
KM08 080335Z AUTO 00000KT 8SM CLR 21/21 A3010 RMK A01
KM08 080315Z AUTO 00000KT 10SM CLR 22/21 A3010 RMK A01
KM08 080255Z AUTO 00000KT 10SM CLR 22/21 A3010 RMK A01
KM08 080235Z AUTO 00000KT 10SM CLR 22/21 A3010 RMK A01
KM08 080215Z AUTO 00000KT 10SM CLR 23/21 A3009 RMK A01
KM08 080155Z AUTO 00000KT 10SM CLR 23/21 A3008 RMK A01
KM08 080135Z AUTO 00000KT 10SM CLR 24/21 A3008 RMK A01
KM08 080115Z AUTO 00000KT 10SM CLR 24/21 A3008 RMK A01
KM08 080055Z AUTO 00000KT 10SM CLR 25/21 A3008 RMK A01
KM08 080035Z AUTO 00000KT 10SM CLR 26/21 A3008 RMK A01
KM08 080015Z AUTO 00000KT 10SM CLR 28/21 A3008 RMK A01
KM08 072355Z AUTO 00000KT 10SM CLR 29/20 A3007 RMK A01
KM08 072335Z AUTO 00000KT 10SM CLR 29/20 A3007 RMK A01
KM08 072315Z AUTO 33004KT 10SM CLR 30/20 A3007 RMK A01
KM08 072255Z AUTO 32004KT 10SM CLR 30/19 A3007 RMK A01
KM08 072235Z AUTO 32004KT 10SM CLR 30/20 A3007 RMK A01
KM08 072215Z AUTO VRB04KT 10SM CLR 30/20 A3008 RMK A01
KM08 072155Z AUTO 34004KT 10SM CLR 30/20 A3008 RMK A01
KM08 072135Z AUTO VRB04KT 10SM CLR 30/20 A3009 RMK A01
KM08 072115Z AUTO VRB05KT 10SM CLR 31/19 A3009 RMK A01
KM08 072055Z AUTO 33005KT 10SM CLR 30/20 A3009 RMK A01
KM08 072035Z AUTO 00000KT 10SM CLR 30/19 A3009 RMK A01
KM08 072015Z AUTO 00000KT 10SM CLR 30/19 A3010 RMK A01
KM08 071955Z AUTO 00000KT 10SM CLR 30/19 A3010 RMK A01
KM08 071935Z AUTO 00000KT 10SM CLR 31/19 A3010 RMK A01
KM08 071915Z AUTO 00000KT 10SM CLR 30/18 A3010 RMK A01
KM08 071855Z AUTO 00000KT 10SM CLR 30/19 A3011 RMK A01
KM08 071835Z AUTO 00000KT 10SM CLR 30/19 A3011 RMK A01
KM08 071815Z AUTO 00000KT 10SM CLR 29/19 A3011 RMK A01
KM08 071755Z AUTO 00000KT 10SM CLR 29/19 A3011 RMK A01
KM08 071735Z AUTO 00000KT 10SM CLR 29/19 A3012 RMK A01
KM08 071715Z AUTO 03004KT 10SM CLR 28/19 A3012 RMK A01
KM08 071655Z AUTO 32007KT 10SM CLR 28/19 A3012 RMK A01
KM08 071635Z AUTO VRB04KT 10SM CLR 28/19 A3012 RMK A01
KM08 071615Z AUTO VRB04KT 10SM CLR 28/19 A3012 RMK A01
KM08 071555Z AUTO 07005KT 10SM CLR 27/19 A3012 RMK A01
KM08 071535Z AUTO 00000KT 10SM CLR 27/19 A3012 RMK A01
KM08 071515Z AUTO 09004KT 10SM CLR 26/19 A3011 RMK A01
KM08 071455Z AUTO 00000KT 10SM CLR 26/19 A3011 RMK A01
KM08 071435Z AUTO 06003KT 10SM CLR 24/19 A3010 RMK A01
KM08 071415Z AUTO 09003KT 10SM CLR 24/19 A3010 RMK A01
KM08 071355Z AUTO 00000KT 10SM CLR 23/19 A3010 RMK A01
KM08 071335Z AUTO 04005KT 10SM CLR 23/18 A3010 RMK A01
KM08 071315Z AUTO 00000KT 10SM CLR 22/18 A3010 RMK A01
KM08 071255Z AUTO 00000KT 10SM CLR 20/19 A3010 RMK A01
KM08 071235Z AUTO 00000KT 10SM CLR 19/18 A3009 RMK A01
KM08 071215Z AUTO 00000KT 5SM BR CLR 18/17 A3009 RMK A01
KM08 071155Z AUTO 00000KT 2 1/2SM BR CLR 17/16 A3009 RMK A01 VIS 1V5
KM08 071135Z AUTO 00000KT 1/2SM FG VV005 16/16 A3008 RMK A01
KM08 071110Z AUTO 00000KT 1 1/2SM BR CLR 16/16 A3008 RMK A01
KM08 071055Z AUTO 00000KT 3SM BR CLR 16/16 A3008 RMK A01
KM08 071035Z AUTO 00000KT 1/2SM FG VV005 16/16 A3008 RMK A01
KM08 071015Z AUTO 00000KT 9SM CLR 17/17 A3007 RMK A01
KM08 070955Z AUTO 00000KT 2 1/2SM BR CLR 17/16 A3007 RMK A01